createdAt,value
2023-05-25T00:01:50.485Z,100773.66
2023-05-25T00:04:19.581Z,100774.81
2023-05-25T00:06:47.565Z,100774.03
2023-05-25T00:09:15.217Z,100759.41
2023-05-25T00:11:42.447Z,100767.72
2023-05-25T00:14:09.924Z,100764.56
2023-05-25T00:16:37.645Z,100768.09
2023-05-25T00:19:06.943Z,100762.97
2023-05-25T00:21:34.393Z,100773.63
2023-05-25T00:24:01.655Z,100772.03
2023-05-25T00:26:28.961Z,100781.13
2023-05-25T00:28:56.353Z,100779.97
2023-05-25T00:31:23.812Z,100788.28
2023-05-25T00:33:51.244Z,100788.25
2023-05-25T00:36:18.522Z,100783.47
2023-05-25T00:38:46.007Z,100793.00
2023-05-25T00:41:13.481Z,100796.97
2023-05-25T00:43:40.887Z,100796.59
2023-05-25T00:46:10.555Z,100808.81
2023-05-25T00:48:39.346Z,100815.84
2023-05-25T00:51:07.385Z,100826.94
2023-05-25T00:53:37.152Z,100840.34
2023-05-25T00:56:18.102Z,100847.84
2023-05-25T00:58:48.460Z,100846.53
2023-05-25T01:01:16.248Z,100856.84
2023-05-25T01:03:48.296Z,100862.34
2023-05-25T01:06:17.074Z,100859.59
2023-05-25T01:08:54.427Z,100865.13
2023-05-25T01:11:32.571Z,100887.63
2023-05-25T01:14:01.517Z,100895.25
2023-05-25T01:16:29.805Z,100892.81
2023-05-25T01:18:57.752Z,100882.97
2023-05-25T01:21:48.179Z,100877.38
2023-05-25T01:24:27.605Z,100876.22
2023-05-25T01:27:05.789Z,100880.34
2023-05-25T01:29:35.477Z,100878.88
2023-05-25T01:32:04.676Z,100891.56
2023-05-25T01:34:36.078Z,100892.06
2023-05-25T01:37:03.584Z,100888.69
2023-05-25T01:39:31.027Z,100875.00
2023-05-25T01:42:01.848Z,100877.84
2023-05-25T01:44:30.000Z,100894.69
2023-05-25T01:47:15.582Z,100902.97
2023-05-25T01:49:55.968Z,100907.97
2023-05-25T01:52:28.093Z,100903.34
2023-05-25T01:55:04.277Z,100898.84
2023-05-25T01:57:37.382Z,100897.75
2023-05-25T02:00:05.732Z,100903.59
2023-05-25T02:02:42.964Z,100892.13
2023-05-25T02:05:11.642Z,100891.28
2023-05-25T02:07:39.671Z,100889.38
2023-05-25T02:10:07.957Z,100900.75
2023-05-25T02:12:35.908Z,100906.25
2023-05-25T02:15:05.091Z,100901.19
2023-05-25T02:17:32.534Z,100902.25
2023-05-25T02:20:00.019Z,100899.88
2023-05-25T02:22:27.575Z,100894.00
2023-05-25T02:24:55.070Z,100890.22
2023-05-25T02:27:23.101Z,100893.91
2023-05-25T02:29:50.764Z,100902.63
2023-05-25T02:32:18.240Z,100892.91
2023-05-25T02:34:46.983Z,100898.78
2023-05-25T02:37:14.332Z,100900.66
2023-05-25T02:39:42.386Z,100908.63
2023-05-25T02:42:09.766Z,100901.19
2023-05-25T02:44:37.352Z,100902.88
2023-05-25T02:47:06.843Z,100899.16
2023-05-25T02:49:34.583Z,100905.06
2023-05-25T02:52:02.279Z,100891.78
2023-05-25T02:54:29.604Z,100890.75
2023-05-25T02:56:56.923Z,100886.50
2023-05-25T02:59:25.390Z,100887.44
2023-05-25T03:01:52.806Z,100880.75
2023-05-25T03:04:20.257Z,100888.13
2023-05-25T03:06:47.965Z,100891.94
2023-05-25T03:09:21.809Z,100888.59
2023-05-25T03:11:50.772Z,100893.50
2023-05-25T03:14:20.864Z,100897.31
2023-05-25T03:16:56.672Z,100896.03
2023-05-25T03:19:24.957Z,100902.97
2023-05-25T03:21:52.268Z,100907.03
2023-05-25T03:24:20.278Z,100918.00
2023-05-25T03:26:47.723Z,100929.72
2023-05-25T03:29:16.032Z,100934.31
2023-05-25T03:31:52.185Z,100938.88
2023-05-25T03:34:24.755Z,100941.69
2023-05-25T03:36:54.297Z,100935.78
2023-05-25T03:39:22.300Z,100937.28
2023-05-25T03:41:51.309Z,100951.38
2023-05-25T03:44:19.008Z,100945.16
2023-05-25T03:46:46.954Z,100951.78
2023-05-25T03:49:14.483Z,100944.84
2023-05-25T03:51:43.254Z,100951.78
2023-05-25T03:54:11.121Z,100956.31
2023-05-25T03:56:38.433Z,100950.00
2023-05-25T03:59:06.285Z,100949.28
2023-05-25T04:01:33.616Z,100951.03
2023-05-25T04:04:02.970Z,100950.38
2023-05-25T04:06:30.294Z,100952.75
2023-05-25T04:08:58.025Z,100958.22
2023-05-25T04:11:27.546Z,100966.03
2023-05-25T04:13:54.788Z,100965.72
2023-05-25T04:16:25.942Z,100975.94
2023-05-25T04:18:53.356Z,100976.34
2023-05-25T04:21:21.807Z,100979.97
2023-05-25T04:23:49.788Z,100977.59
2023-05-25T04:26:17.202Z,100981.88
2023-05-25T04:28:46.947Z,100989.81
2023-05-25T04:31:21.635Z,100980.81
2023-05-25T04:34:15.119Z,100982.69
2023-05-25T04:36:50.406Z,100981.09
2023-05-25T04:39:18.682Z,100986.28
2023-05-25T04:41:53.042Z,100984.63
2023-05-25T04:44:20.663Z,100990.28
2023-05-25T04:46:55.433Z,100987.06
2023-05-25T04:49:28.869Z,100989.34
2023-05-25T04:51:56.172Z,100988.69
2023-05-25T04:54:24.403Z,100992.19
2023-05-25T04:56:51.847Z,100994.16
2023-05-25T04:59:19.243Z,100990.28
2023-05-25T05:01:47.998Z,100997.97
2023-05-25T05:04:17.989Z,101002.53
2023-05-25T05:06:46.230Z,101008.31
2023-05-25T05:09:20.217Z,101000.94
2023-05-25T05:11:48.746Z,101021.31
2023-05-25T05:14:17.026Z,101025.78
2023-05-25T05:16:47.999Z,101029.78
2023-05-25T05:19:15.661Z,101029.50
2023-05-25T05:21:45.379Z,101036.81
2023-05-25T05:24:13.262Z,101035.91
2023-05-25T05:26:56.387Z,101048.88
2023-05-25T05:29:34.707Z,101050.44
2023-05-25T05:32:02.197Z,101056.75
2023-05-25T05:34:30.659Z,101058.75
2023-05-25T05:37:00.114Z,101060.56
2023-05-25T05:39:28.472Z,101066.88
2023-05-25T05:41:56.076Z,101064.22
2023-05-25T05:44:26.820Z,101065.34
2023-05-25T05:47:02.082Z,101060.56
2023-05-25T05:49:31.238Z,101060.50
2023-05-25T05:51:59.804Z,101070.75
2023-05-25T05:54:28.259Z,101069.13
2023-05-25T05:56:57.085Z,101062.47
2023-05-25T05:59:24.412Z,101073.28
2023-05-25T06:01:51.845Z,101081.25
2023-05-25T06:04:19.299Z,101080.84
2023-05-25T06:06:46.984Z,101091.84
2023-05-25T06:09:14.471Z,101090.72
2023-05-25T06:11:41.914Z,101099.81
2023-05-25T06:14:11.328Z,101094.41
2023-05-25T06:16:38.661Z,101099.88
2023-05-25T06:19:05.957Z,101102.56
2023-05-25T06:21:33.330Z,101106.22
2023-05-25T06:24:02.831Z,101111.75
2023-05-25T06:26:30.105Z,101114.75
2023-05-25T06:28:58.251Z,101113.00
2023-05-25T06:31:25.932Z,101116.81
2023-05-25T06:33:53.400Z,101114.75
2023-05-25T06:36:21.839Z,101115.47
2023-05-25T06:38:49.111Z,101124.94
2023-05-25T06:41:16.477Z,101130.19
2023-05-25T06:43:43.947Z,101123.94
2023-05-25T06:46:34.419Z,101124.72
2023-05-25T06:49:02.342Z,101131.16
2023-05-25T06:51:29.567Z,101130.34
2023-05-25T06:53:57.122Z,101130.81
2023-05-25T06:56:24.517Z,101141.06
2023-05-25T06:58:51.892Z,101143.28
2023-05-25T07:01:19.329Z,101138.56
2023-05-25T07:03:46.660Z,101138.91
2023-05-25T07:06:15.163Z,101142.66
2023-05-25T07:08:42.635Z,101139.91
2023-05-25T07:11:12.527Z,101135.41
2023-05-25T07:13:40.484Z,101141.22
2023-05-25T07:16:07.848Z,101134.75
2023-05-25T07:18:35.266Z,101141.81
2023-05-25T07:21:03.427Z,101135.75
2023-05-25T07:23:30.785Z,101136.31
2023-05-25T07:25:58.119Z,101136.91
2023-05-25T07:28:25.605Z,101138.94
2023-05-25T07:30:52.941Z,101151.13
2023-05-25T07:33:20.247Z,101149.13
2023-05-25T07:35:47.607Z,101158.66
2023-05-25T07:38:14.973Z,101158.97
2023-05-25T07:40:42.393Z,101163.72
2023-05-25T07:43:09.744Z,101167.31
2023-05-25T07:45:37.069Z,101178.69
2023-05-25T07:48:07.148Z,101165.22
2023-05-25T07:50:34.553Z,101178.03
2023-05-25T07:53:01.885Z,101167.38
2023-05-25T07:55:29.192Z,101185.25
2023-05-25T07:57:56.524Z,101182.16
2023-05-25T08:00:24.158Z,101193.03
2023-05-25T08:02:51.719Z,101192.56
2023-05-25T08:05:19.318Z,101195.03
2023-05-25T08:07:46.770Z,101192.16
2023-05-25T08:10:16.882Z,101194.03
2023-05-25T08:12:49.524Z,101192.13
2023-05-25T08:15:18.166Z,101185.38
2023-05-25T08:17:45.742Z,101190.81
2023-05-25T08:20:14.525Z,101194.94
2023-05-25T08:22:42.731Z,101195.28
2023-05-25T08:25:10.228Z,101199.59
2023-05-25T08:27:37.934Z,101205.56
2023-05-25T08:30:06.097Z,101208.28
2023-05-25T08:32:33.655Z,101209.56
2023-05-25T08:35:02.041Z,101210.00
2023-05-25T08:37:32.303Z,101213.50
2023-05-25T08:40:02.554Z,101211.66
2023-05-25T08:42:30.113Z,101217.50
2023-05-25T08:44:58.946Z,101222.84
2023-05-25T08:47:32.732Z,101226.44
2023-05-25T08:50:01.692Z,101228.91
2023-05-25T08:52:34.260Z,101234.00
2023-05-25T08:55:07.545Z,101237.31
2023-05-25T08:57:41.512Z,101228.72
2023-05-25T09:00:12.312Z,101233.47
2023-05-25T09:02:51.093Z,101238.38
2023-05-25T09:05:19.144Z,101239.41
2023-05-25T09:07:46.928Z,101234.97
2023-05-25T09:10:15.163Z,101241.44
2023-05-25T09:12:44.531Z,101234.03
2023-05-25T09:15:12.569Z,101245.50
2023-05-25T09:17:41.454Z,101242.66
2023-05-25T09:20:15.629Z,101243.47
2023-05-25T09:22:44.524Z,101250.97
2023-05-25T09:25:15.136Z,101245.44
2023-05-25T09:27:42.853Z,101246.06
2023-05-25T09:30:10.633Z,101256.38
2023-05-25T09:32:39.430Z,101252.41
2023-05-25T09:35:08.115Z,101249.63
2023-05-25T09:37:36.691Z,101252.81
2023-05-25T09:40:11.648Z,101244.47
2023-05-25T09:42:39.086Z,101252.00
2023-05-25T09:45:06.953Z,101248.78
2023-05-25T09:47:36.710Z,101252.75
2023-05-25T09:50:04.491Z,101254.66
2023-05-25T09:52:32.240Z,101254.69
2023-05-25T09:54:59.622Z,101249.28
2023-05-25T09:57:27.985Z,101257.59
2023-05-25T09:59:55.346Z,101260.13
2023-05-25T10:02:22.756Z,101252.66
2023-05-25T10:04:50.492Z,101259.88
2023-05-25T10:07:17.952Z,101259.28
2023-05-25T10:09:51.264Z,101271.59
2023-05-25T10:12:21.157Z,101258.84
2023-05-25T10:14:50.913Z,101263.94
2023-05-25T10:17:24.635Z,101260.00
2023-05-25T10:19:57.503Z,101261.13
2023-05-25T10:22:44.143Z,101248.28
2023-05-25T10:25:23.177Z,101248.50
2023-05-25T10:27:54.384Z,101248.34
2023-05-25T10:30:23.694Z,101246.31
2023-05-25T10:32:52.168Z,101237.41
2023-05-25T10:35:19.747Z,101236.34
2023-05-25T10:37:47.667Z,101227.63
2023-05-25T10:40:16.064Z,101226.22
2023-05-25T10:42:45.664Z,101233.28
2023-05-25T10:45:13.707Z,101233.66
2023-05-25T10:47:46.360Z,101228.44
2023-05-25T10:50:27.338Z,101230.84
2023-05-25T10:53:02.519Z,101237.03
2023-05-25T10:55:54.232Z,101233.94
2023-05-25T10:58:22.704Z,101223.31
2023-05-25T11:01:10.029Z,101232.84
2023-05-25T11:04:12.304Z,101228.19
2023-05-25T11:06:45.765Z,101215.16
2023-05-25T11:09:27.795Z,101220.47
2023-05-25T11:12:02.363Z,101220.53
2023-05-25T11:14:31.375Z,101217.78
2023-05-25T11:17:10.337Z,101217.56
2023-05-25T11:19:51.097Z,101206.38
2023-05-25T11:22:32.317Z,101213.53
2023-05-25T11:25:01.632Z,101203.03
2023-05-25T11:27:31.623Z,101194.50
2023-05-25T11:29:59.981Z,101200.91
2023-05-25T11:32:28.377Z,101192.63
2023-05-25T11:34:58.238Z,101188.94
2023-05-25T11:37:28.925Z,101190.31
2023-05-25T11:39:56.855Z,101198.19
2023-05-25T11:42:25.775Z,101200.50
2023-05-25T11:44:53.689Z,101187.53
2023-05-25T11:47:23.670Z,101201.84
2023-05-25T11:49:51.218Z,101188.66
2023-05-25T11:52:20.399Z,101189.69
2023-05-25T11:54:47.905Z,101186.38
2023-05-25T11:57:26.095Z,101187.84
2023-05-25T11:59:55.503Z,101178.13
2023-05-25T12:02:23.903Z,101180.31
2023-05-25T12:05:01.520Z,101176.56
2023-05-25T12:07:30.629Z,101177.38
2023-05-25T12:10:08.883Z,101179.13
2023-05-25T12:12:51.792Z,101174.41
2023-05-25T12:15:23.886Z,101162.91
2023-05-25T12:17:52.110Z,101166.09
2023-05-25T12:20:20.661Z,101164.06
2023-05-25T12:22:48.194Z,101157.50
2023-05-25T12:25:19.769Z,101159.78
2023-05-25T12:27:47.340Z,101150.38
2023-05-25T12:30:14.689Z,101148.94
2023-05-25T12:33:01.720Z,101148.94
2023-05-25T12:35:31.605Z,101140.22
2023-05-25T12:38:12.909Z,101146.56
2023-05-25T12:40:42.000Z,101133.44
2023-05-25T12:43:11.830Z,101134.09
2023-05-25T12:45:42.978Z,101135.78
2023-05-25T12:48:11.098Z,101135.66
2023-05-25T12:50:58.063Z,101134.56
2023-05-25T12:53:27.237Z,101130.97
2023-05-25T12:56:02.756Z,101132.63
2023-05-25T12:58:30.213Z,101131.09
2023-05-25T13:00:57.851Z,101138.44
2023-05-25T13:03:26.293Z,101139.84
2023-05-25T13:06:00.795Z,101134.06
2023-05-25T13:08:29.289Z,101136.84
2023-05-25T13:10:56.759Z,101140.19
2023-05-25T13:13:24.095Z,101139.72
2023-05-25T13:15:51.482Z,101131.09
2023-05-25T13:18:19.022Z,101123.13
2023-05-25T13:20:49.827Z,101125.44
2023-05-25T13:23:18.569Z,101124.22
2023-05-25T13:25:46.992Z,101113.69
2023-05-25T13:28:15.803Z,101113.44
2023-05-25T13:30:43.525Z,101116.09
2023-05-25T13:33:11.218Z,101105.34
2023-05-25T13:35:45.881Z,101110.44
2023-05-25T13:38:15.727Z,101103.13
2023-05-25T13:40:45.490Z,101102.25
2023-05-25T13:43:13.187Z,101106.66
2023-05-25T13:45:40.619Z,101101.28
2023-05-25T13:48:08.854Z,101102.50
2023-05-25T13:50:36.522Z,101097.19
2023-05-25T13:53:03.870Z,101102.56
2023-05-25T13:55:31.296Z,101098.53
2023-05-25T13:57:58.750Z,101094.84
2023-05-25T14:00:26.444Z,101102.13
2023-05-25T14:02:54.160Z,101093.03
2023-05-25T14:05:21.946Z,101093.19
2023-05-25T14:07:49.468Z,101091.53
2023-05-25T14:10:17.051Z,101092.22
2023-05-25T14:12:44.725Z,101084.00
2023-05-25T14:15:12.179Z,101091.25
2023-05-25T14:17:39.603Z,101093.47
2023-05-25T14:20:07.705Z,101084.50
2023-05-25T14:22:36.146Z,101087.41
2023-05-25T14:25:03.780Z,101086.53
2023-05-25T14:27:31.305Z,101086.66
2023-05-25T14:29:58.653Z,101085.03
2023-05-25T14:32:26.077Z,101088.78
2023-05-25T14:34:53.610Z,101079.97
2023-05-25T14:37:20.902Z,101096.66
2023-05-25T14:39:48.444Z,101087.03
2023-05-25T14:42:15.953Z,101083.41
2023-05-25T14:44:43.391Z,101084.25
2023-05-25T14:47:11.016Z,101087.19
2023-05-25T14:49:38.420Z,101088.16
2023-05-25T14:52:06.000Z,101086.28
2023-05-25T14:54:33.356Z,101078.31
2023-05-25T14:57:01.840Z,101087.47
2023-05-25T14:59:29.312Z,101085.09
2023-05-25T15:01:56.685Z,101085.50
2023-05-25T15:04:26.406Z,101091.38
2023-05-25T15:06:54.127Z,101091.09
2023-05-25T15:09:22.636Z,101093.50
2023-05-25T15:11:49.995Z,101091.88
2023-05-25T15:14:17.394Z,101094.22
2023-05-25T15:16:44.913Z,101094.50
2023-05-25T15:19:13.924Z,101092.56
2023-05-25T15:21:43.362Z,101083.50
2023-05-25T15:24:13.887Z,101091.34
2023-05-25T15:26:41.237Z,101095.94
2023-05-25T15:29:08.614Z,101095.16
2023-05-25T15:31:36.205Z,101088.00
2023-05-25T15:34:03.617Z,101095.53
2023-05-25T15:36:31.379Z,101091.41
2023-05-25T15:38:58.781Z,101086.56
2023-05-25T15:41:27.063Z,101094.50
2023-05-25T15:44:01.452Z,101086.72
2023-05-25T15:46:29.292Z,101095.44
2023-05-25T15:48:57.543Z,101088.59
2023-05-25T15:51:24.959Z,101095.72
2023-05-25T15:53:52.465Z,101087.34
2023-05-25T15:56:19.825Z,101086.91
2023-05-25T15:58:49.349Z,101087.56
2023-05-25T16:01:16.864Z,101088.81
2023-05-25T16:03:44.967Z,101088.19
2023-05-25T16:06:19.131Z,101083.81
2023-05-25T16:08:46.694Z,101087.06
2023-05-25T16:11:14.635Z,101081.44
2023-05-25T16:13:41.999Z,101081.66
2023-05-25T16:16:09.892Z,101088.47
2023-05-25T16:18:37.606Z,101081.66
2023-05-25T16:21:05.303Z,101082.56
2023-05-25T16:23:32.716Z,101079.59
2023-05-25T16:26:00.086Z,101084.41
2023-05-25T16:28:28.536Z,101084.00
2023-05-25T16:30:56.186Z,101083.34
2023-05-25T16:33:23.656Z,101078.22
2023-05-25T16:35:53.736Z,101085.41
2023-05-25T16:38:21.184Z,101084.66
2023-05-25T16:40:48.617Z,101080.44
2023-05-25T16:43:16.068Z,101082.81
2023-05-25T16:45:43.687Z,101081.47
2023-05-25T16:48:11.352Z,101078.72
2023-05-25T16:50:39.897Z,101073.19
2023-05-25T16:53:07.302Z,101077.97
2023-05-25T16:55:37.254Z,101075.97
2023-05-25T16:58:04.705Z,101077.16
2023-05-25T17:00:33.491Z,101077.63
2023-05-25T17:03:01.006Z,101076.44
2023-05-25T17:05:28.530Z,101081.41
2023-05-25T17:07:57.022Z,101086.16
2023-05-25T17:10:28.236Z,101083.34
2023-05-25T17:12:56.046Z,101087.31
2023-05-25T17:15:23.406Z,101085.38
2023-05-25T17:17:50.868Z,101091.28
2023-05-25T17:20:18.406Z,101086.47
2023-05-25T17:22:47.944Z,101094.13
2023-05-25T17:25:15.996Z,101090.66
2023-05-25T17:27:43.391Z,101091.56
2023-05-25T17:30:11.126Z,101083.75
2023-05-25T17:32:42.927Z,101088.16
2023-05-25T17:35:10.413Z,101082.69
2023-05-25T17:37:37.780Z,101086.22
2023-05-25T17:40:05.629Z,101089.94
2023-05-25T17:42:35.856Z,101081.56
2023-05-25T17:45:03.360Z,101091.22
2023-05-25T17:47:32.374Z,101096.84
2023-05-25T17:49:59.756Z,101090.59
2023-05-25T17:52:29.385Z,101090.66
2023-05-25T17:54:56.792Z,101102.59
2023-05-25T17:57:24.336Z,101091.47
2023-05-25T17:59:51.790Z,101096.69
2023-05-25T18:02:19.330Z,101099.88
2023-05-25T18:04:47.227Z,101102.31
2023-05-25T18:07:14.718Z,101100.75
2023-05-25T18:09:42.077Z,101094.78
2023-05-25T18:12:10.048Z,101100.84
2023-05-25T18:14:38.259Z,101101.63
2023-05-25T18:17:07.500Z,101096.88
2023-05-25T18:19:35.341Z,101102.09
2023-05-25T18:22:02.754Z,101110.81
2023-05-25T18:24:33.762Z,101114.41
2023-05-25T18:27:03.855Z,101123.13
2023-05-25T18:29:31.257Z,101118.00
2023-05-25T18:31:58.680Z,101112.50
2023-05-25T18:34:26.081Z,101124.00
2023-05-25T18:36:54.376Z,101124.00
2023-05-25T18:39:21.872Z,101110.53
2023-05-25T18:41:49.356Z,101119.22
2023-05-25T18:44:17.210Z,101122.50
2023-05-25T18:46:47.080Z,101122.50
2023-05-25T18:49:15.117Z,101115.72
2023-05-25T18:51:43.363Z,101118.56
2023-05-25T18:54:11.353Z,101125.31
2023-05-25T18:56:38.940Z,101119.75
2023-05-25T18:59:06.446Z,101118.97
2023-05-25T19:01:33.893Z,101121.38
2023-05-25T19:04:02.240Z,101124.16
2023-05-25T19:06:29.646Z,101122.22
2023-05-25T19:08:58.275Z,101125.38
2023-05-25T19:11:26.892Z,101117.81
2023-05-25T19:13:57.478Z,101128.16
2023-05-25T19:16:26.391Z,101131.75
2023-05-25T19:18:55.101Z,101147.22
2023-05-25T19:21:23.565Z,101135.72
2023-05-25T19:23:52.313Z,101142.06
2023-05-25T19:26:24.135Z,101141.69
2023-05-25T19:28:53.124Z,101141.69
2023-05-25T19:31:23.545Z,101141.72
2023-05-25T19:33:51.128Z,101143.69
2023-05-25T19:36:22.873Z,101148.06
2023-05-25T19:38:53.797Z,101154.41
2023-05-25T19:41:22.988Z,101154.78
2023-05-25T19:43:52.929Z,101152.03
2023-05-25T19:46:21.351Z,101156.41
2023-05-25T19:48:49.094Z,101168.31
2023-05-25T19:51:19.574Z,101163.53
2023-05-25T19:53:49.206Z,101166.72
2023-05-25T19:56:17.811Z,101175.06
2023-05-25T19:58:49.318Z,101169.91
2023-05-25T20:01:19.349Z,101166.72
2023-05-25T20:03:53.210Z,101174.63
2023-05-25T20:06:25.093Z,101175.84
2023-05-25T20:08:53.613Z,101181.78
2023-05-25T20:11:21.152Z,101180.59
2023-05-25T20:13:51.268Z,101189.31
2023-05-25T20:16:20.752Z,101184.91
2023-05-25T20:18:48.926Z,101183.72
2023-05-25T20:21:21.945Z,101186.88
2023-05-25T20:23:52.579Z,101181.72
2023-05-25T20:26:21.023Z,101179.72
2023-05-25T20:28:48.409Z,101185.66
2023-05-25T20:31:21.893Z,101184.06
2023-05-25T20:33:49.571Z,101186.44
2023-05-25T20:36:18.855Z,101178.91
2023-05-25T20:38:48.399Z,101190.81
2023-05-25T20:41:17.209Z,101179.31
2023-05-25T20:43:47.042Z,101191.19
2023-05-25T20:46:19.585Z,101189.56
2023-05-25T20:48:49.639Z,101181.25
2023-05-25T20:51:18.045Z,101184.78
2023-05-25T20:53:46.697Z,101181.63
2023-05-25T20:56:15.036Z,101187.53
2023-05-25T20:58:43.745Z,101171.31
2023-05-25T21:01:15.307Z,101178.84
2023-05-25T21:03:44.164Z,101173.69
2023-05-25T21:06:18.023Z,101178.84
2023-05-25T21:08:45.468Z,101177.22
2023-05-25T21:11:12.884Z,101181.59
2023-05-25T21:13:40.489Z,101178.81
2023-05-25T21:16:07.996Z,101173.22
2023-05-25T21:18:36.011Z,101181.13
2023-05-25T21:21:04.679Z,101181.13
2023-05-25T21:23:33.139Z,101177.16
2023-05-25T21:26:02.875Z,101174.31
2023-05-25T21:28:31.568Z,101176.69
2023-05-25T21:31:03.421Z,101177.59
2023-05-25T21:33:35.627Z,101168.91
2023-05-25T21:36:03.933Z,101180.38
2023-05-25T21:38:33.448Z,101180.16
2023-05-25T21:41:01.365Z,101176.38
2023-05-25T21:43:28.795Z,101185.88
2023-05-25T21:45:57.861Z,101183.06
2023-05-25T21:48:25.321Z,101181.53
2023-05-25T21:50:53.409Z,101190.25
2023-05-25T21:53:22.317Z,101183.91
2023-05-25T21:55:49.681Z,101189.00
2023-05-25T21:58:17.584Z,101187.84
2023-05-25T22:00:45.368Z,101183.06
2023-05-25T22:03:14.424Z,101197.72
2023-05-25T22:05:42.206Z,101191.06
2023-05-25T22:08:09.795Z,101209.53
2023-05-25T22:10:38.413Z,101198.91
2023-05-25T22:13:05.728Z,101201.66
2023-05-25T22:15:33.185Z,101196.50
2023-05-25T22:18:01.406Z,101200.34
2023-05-25T22:20:28.837Z,101208.91
2023-05-25T22:22:56.177Z,101202.88
2023-05-25T22:25:23.561Z,101195.75
2023-05-25T22:27:50.888Z,101203.31
2023-05-25T22:30:18.250Z,101198.97
2023-05-25T22:32:45.671Z,101187.06
2023-05-25T22:35:13.019Z,101185.47
2023-05-25T22:37:40.943Z,101189.84
2023-05-25T22:40:08.760Z,101180.72
2023-05-25T22:42:36.047Z,101187.41
2023-05-25T22:45:03.598Z,101181.88
2023-05-25T22:47:31.054Z,101185.03
2023-05-25T22:49:58.348Z,101178.66
2023-05-25T22:52:25.650Z,101180.94
2023-05-25T22:54:52.929Z,101174.13
2023-05-25T22:57:20.674Z,101171.31
2023-05-25T22:59:47.940Z,101167.34
2023-05-25T23:02:15.452Z,101169.28
2023-05-25T23:04:42.901Z,101167.25
2023-05-25T23:07:10.154Z,101174.25
2023-05-25T23:09:37.436Z,101173.25
2023-05-25T23:12:05.126Z,101173.56
2023-05-25T23:14:32.545Z,101173.16
2023-05-25T23:16:59.841Z,101176.97
2023-05-25T23:19:27.247Z,101185.28
2023-05-25T23:21:55.824Z,101174.94
2023-05-25T23:24:23.221Z,101172.59
2023-05-25T23:26:50.682Z,101180.97
2023-05-25T23:29:17.909Z,101170.75
2023-05-25T23:31:45.268Z,101172.97
2023-05-25T23:34:12.552Z,101161.13
2023-05-25T23:36:40.639Z,101166.50
2023-05-25T23:39:08.147Z,101169.66
2023-05-25T23:41:35.684Z,101169.53
2023-05-25T23:44:03.051Z,101175.19
2023-05-25T23:46:31.801Z,101176.19
2023-05-25T23:48:59.247Z,101167.06
2023-05-25T23:51:26.664Z,101169.66
2023-05-25T23:53:53.911Z,101174.06
2023-05-25T23:56:21.962Z,101172.53
2023-05-25T23:58:49.390Z,101172.66
